sensor_id;sensor_type;location;lat;lon;timestamp;pressure;altitude;pressure_sealevel;temperature;humidity
66703;BME280;60933;46.398;-63.798;2023-02-28T00:01:27;101749.09;;;-13.18;59.62
66703;BME280;60933;46.398;-63.798;2023-02-28T00:03:53;101746.84;;;-13.26;59.41
66703;BME280;60933;46.398;-63.798;2023-02-28T00:06:19;101742.31;;;-13.30;58.64
66703;BME280;60933;46.398;-63.798;2023-02-28T00:08:46;101732.56;;;-13.37;57.85
66703;BME280;60933;46.398;-63.798;2023-02-28T00:11:14;101735.59;;;-13.41;57.96
66703;BME280;60933;46.398;-63.798;2023-02-28T00:13:42;101723.63;;;-13.45;57.93
66703;BME280;60933;46.398;-63.798;2023-02-28T00:16:14;101718.25;;;-13.50;57.93
66703;BME280;60933;46.398;-63.798;2023-02-28T00:18:41;101718.44;;;-13.57;58.88
66703;BME280;60933;46.398;-63.798;2023-02-28T00:21:09;101716.75;;;-13.67;58.63
66703;BME280;60933;46.398;-63.798;2023-02-28T00:23:36;101718.09;;;-13.71;59.17
66703;BME280;60933;46.398;-63.798;2023-02-28T00:26:03;101719.16;;;-13.77;58.69
66703;BME280;60933;46.398;-63.798;2023-02-28T00:28:29;101717.88;;;-13.82;59.16
66703;BME280;60933;46.398;-63.798;2023-02-28T00:30:55;101718.06;;;-13.90;59.81
66703;BME280;60933;46.398;-63.798;2023-02-28T00:33:22;101720.88;;;-13.95;59.54
66703;BME280;60933;46.398;-63.798;2023-02-28T00:35:48;101728.50;;;-14.03;58.50
66703;BME280;60933;46.398;-63.798;2023-02-28T00:38:15;101732.78;;;-14.10;58.16
66703;BME280;60933;46.398;-63.798;2023-02-28T00:40:41;101743.88;;;-14.16;58.35
66703;BME280;60933;46.398;-63.798;2023-02-28T00:43:07;101741.75;;;-14.21;58.88
66703;BME280;60933;46.398;-63.798;2023-02-28T00:45:33;101740.31;;;-14.28;58.28
66703;BME280;60933;46.398;-63.798;2023-02-28T00:47:59;101736.53;;;-14.33;56.75
66703;BME280;60933;46.398;-63.798;2023-02-28T00:50:25;101731.00;;;-14.39;56.56
66703;BME280;60933;46.398;-63.798;2023-02-28T00:52:51;101730.44;;;-14.45;56.94
66703;BME280;60933;46.398;-63.798;2023-02-28T00:55:17;101719.97;;;-14.52;56.80
66703;BME280;60933;46.398;-63.798;2023-02-28T00:57:43;101723.63;;;-14.57;57.08
66703;BME280;60933;46.398;-63.798;2023-02-28T01:00:10;101732.09;;;-14.64;56.77
66703;BME280;60933;46.398;-63.798;2023-02-28T01:02:36;101725.47;;;-14.73;58.63
66703;BME280;60933;46.398;-63.798;2023-02-28T01:05:02;101735.06;;;-14.76;57.63
66703;BME280;60933;46.398;-63.798;2023-02-28T01:07:28;101722.00;;;-14.84;57.11
66703;BME280;60933;46.398;-63.798;2023-02-28T01:09:55;101725.06;;;-14.87;56.73
66703;BME280;60933;46.398;-63.798;2023-02-28T01:12:21;101729.41;;;-14.93;56.29
66703;BME280;60933;46.398;-63.798;2023-02-28T01:14:47;101734.84;;;-14.97;55.48
66703;BME280;60933;46.398;-63.798;2023-02-28T01:17:13;101729.31;;;-15.03;54.91
66703;BME280;60933;46.398;-63.798;2023-02-28T01:19:39;101732.38;;;-15.06;54.95
66703;BME280;60933;46.398;-63.798;2023-02-28T01:22:06;101730.03;;;-15.13;55.39
66703;BME280;60933;46.398;-63.798;2023-02-28T01:24:32;101731.63;;;-15.14;55.81
66703;BME280;60933;46.398;-63.798;2023-02-28T01:26:58;101734.56;;;-15.18;56.08
66703;BME280;60933;46.398;-63.798;2023-02-28T01:29:24;101739.09;;;-15.22;55.44
66703;BME280;60933;46.398;-63.798;2023-02-28T01:31:50;101754.94;;;-15.29;57.92
66703;BME280;60933;46.398;-63.798;2023-02-28T01:34:17;101759.59;;;-15.32;62.96
66703;BME280;60933;46.398;-63.798;2023-02-28T01:36:45;101765.72;;;-15.37;63.66
66703;BME280;60933;46.398;-63.798;2023-02-28T01:39:11;101747.50;;;-15.47;62.03
66703;BME280;60933;46.398;-63.798;2023-02-28T01:41:38;101753.03;;;-15.49;61.54
66703;BME280;60933;46.398;-63.798;2023-02-28T01:46:51;101746.78;;;-15.63;59.91
66703;BME280;60933;46.398;-63.798;2023-02-28T01:49:18;101741.38;;;-15.68;58.95
66703;BME280;60933;46.398;-63.798;2023-02-28T01:51:48;101747.66;;;-15.71;58.40
66703;BME280;60933;46.398;-63.798;2023-02-28T01:54:24;101739.47;;;-15.79;57.54
66703;BME280;60933;46.398;-63.798;2023-02-28T01:57:10;101735.94;;;-15.81;57.12
66703;BME280;60933;46.398;-63.798;2023-02-28T01:59:50;101738.78;;;-15.87;57.85
66703;BME280;60933;46.398;-63.798;2023-02-28T02:02:19;101736.69;;;-15.91;56.78
66703;BME280;60933;46.398;-63.798;2023-02-28T02:04:56;101743.09;;;-15.93;56.33
66703;BME280;60933;46.398;-63.798;2023-02-28T02:07:25;101737.88;;;-15.96;56.47
66703;BME280;60933;46.398;-63.798;2023-02-28T02:10:24;101731.75;;;-16.00;55.52
66703;BME280;60933;46.398;-63.798;2023-02-28T02:18:46;101732.44;;;-16.10;57.14
66703;BME280;60933;46.398;-63.798;2023-02-28T02:34:55;101741.66;;;-16.33;54.93
66703;BME280;60933;46.398;-63.798;2023-02-28T02:40:15;101728.38;;;-16.43;55.73
66703;BME280;60933;46.398;-63.798;2023-02-28T02:42:55;101729.81;;;-16.45;55.57
66703;BME280;60933;46.398;-63.798;2023-02-28T02:45:43;101728.66;;;-16.48;54.99
66703;BME280;60933;46.398;-63.798;2023-02-28T02:48:15;101739.81;;;-16.52;54.83
66703;BME280;60933;46.398;-63.798;2023-02-28T02:50:46;101742.88;;;-16.54;54.73
66703;BME280;60933;46.398;-63.798;2023-02-28T02:53:17;101750.88;;;-16.57;54.44
66703;BME280;60933;46.398;-63.798;2023-02-28T02:55:47;101760.44;;;-16.60;54.43
66703;BME280;60933;46.398;-63.798;2023-02-28T02:58:22;101767.84;;;-16.60;54.74
66703;BME280;60933;46.398;-63.798;2023-02-28T03:00:53;101767.56;;;-16.63;54.71
66703;BME280;60933;46.398;-63.798;2023-02-28T03:03:24;101762.28;;;-16.66;55.06
66703;BME280;60933;46.398;-63.798;2023-02-28T03:06:00;101773.31;;;-16.72;55.36
66703;BME280;60933;46.398;-63.798;2023-02-28T03:08:29;101769.66;;;-16.75;54.53
66703;BME280;60933;46.398;-63.798;2023-02-28T03:10:58;101758.59;;;-16.79;55.30
66703;BME280;60933;46.398;-63.798;2023-02-28T03:19:23;101766.34;;;-16.92;54.22
66703;BME280;60933;46.398;-63.798;2023-02-28T03:25:16;101753.75;;;-17.11;54.15
66703;BME280;60933;46.398;-63.798;2023-02-28T03:28:17;101774.13;;;-17.05;54.43
66703;BME280;60933;46.398;-63.798;2023-02-28T03:30:52;101764.00;;;-17.15;54.73
66703;BME280;60933;46.398;-63.798;2023-02-28T03:33:30;101762.09;;;-17.17;56.34
66703;BME280;60933;46.398;-63.798;2023-02-28T03:36:12;101770.00;;;-17.13;55.18
66703;BME280;60933;46.398;-63.798;2023-02-28T03:38:47;101776.34;;;-17.15;55.20
66703;BME280;60933;46.398;-63.798;2023-02-28T03:41:21;101782.75;;;-17.17;54.96
66703;BME280;60933;46.398;-63.798;2023-02-28T03:43:56;101781.56;;;-17.21;54.96
66703;BME280;60933;46.398;-63.798;2023-02-28T03:46:25;101781.81;;;-17.26;54.75
66703;BME280;60933;46.398;-63.798;2023-02-28T03:49:00;101784.28;;;-17.26;54.70
66703;BME280;60933;46.398;-63.798;2023-02-28T03:51:29;101788.16;;;-17.28;55.29
66703;BME280;60933;46.398;-63.798;2023-02-28T03:54:05;101788.97;;;-17.37;55.44
66703;BME280;60933;46.398;-63.798;2023-02-28T03:56:37;101789.53;;;-17.39;55.20
66703;BME280;60933;46.398;-63.798;2023-02-28T03:59:15;101784.25;;;-17.42;55.33
66703;BME280;60933;46.398;-63.798;2023-02-28T04:01:48;101789.03;;;-17.44;55.67
66703;BME280;60933;46.398;-63.798;2023-02-28T04:04:15;101780.59;;;-17.46;55.76
66703;BME280;60933;46.398;-63.798;2023-02-28T04:06:43;101782.06;;;-17.48;57.56
66703;BME280;60933;46.398;-63.798;2023-02-28T04:09:11;101767.31;;;-17.55;57.97
66703;BME280;60933;46.398;-63.798;2023-02-28T04:11:40;101769.22;;;-17.53;56.32
66703;BME280;60933;46.398;-63.798;2023-02-28T04:14:08;101768.75;;;-17.57;55.68
66703;BME280;60933;46.398;-63.798;2023-02-28T04:16:38;101778.28;;;-17.60;55.27
66703;BME280;60933;46.398;-63.798;2023-02-28T04:19:06;101769.13;;;-17.61;55.79
66703;BME280;60933;46.398;-63.798;2023-02-28T04:21:36;101777.97;;;-17.63;55.59
66703;BME280;60933;46.398;-63.798;2023-02-28T04:24:03;101772.88;;;-17.65;55.75
66703;BME280;60933;46.398;-63.798;2023-02-28T04:26:34;101779.97;;;-17.68;56.69
66703;BME280;60933;46.398;-63.798;2023-02-28T04:29:03;101791.59;;;-17.67;57.24
66703;BME280;60933;46.398;-63.798;2023-02-28T04:31:29;101784.00;;;-17.69;56.40
66703;BME280;60933;46.398;-63.798;2023-02-28T04:33:55;101787.75;;;-17.72;56.17
66703;BME280;60933;46.398;-63.798;2023-02-28T04:36:21;101790.91;;;-17.73;56.43
66703;BME280;60933;46.398;-63.798;2023-02-28T04:38:48;101793.94;;;-17.76;57.43
66703;BME280;60933;46.398;-63.798;2023-02-28T04:41:15;101799.06;;;-17.74;58.51
66703;BME280;60933;46.398;-63.798;2023-02-28T04:43:42;101799.91;;;-17.74;61.50
66703;BME280;60933;46.398;-63.798;2023-02-28T04:46:09;101793.94;;;-17.76;59.32
66703;BME280;60933;46.398;-63.798;2023-02-28T04:48:37;101798.72;;;-17.77;58.16
66703;BME280;60933;46.398;-63.798;2023-02-28T04:51:06;101804.38;;;-17.78;57.31
66703;BME280;60933;46.398;-63.798;2023-02-28T04:53:33;101802.47;;;-17.81;56.39
66703;BME280;60933;46.398;-63.798;2023-02-28T04:55:59;101799.84;;;-17.83;55.74
66703;BME280;60933;46.398;-63.798;2023-02-28T04:58:25;101802.13;;;-17.84;56.06
66703;BME280;60933;46.398;-63.798;2023-02-28T05:00:52;101781.84;;;-17.97;55.63
66703;BME280;60933;46.398;-63.798;2023-02-28T05:03:20;101803.38;;;-17.88;57.39
66703;BME280;60933;46.398;-63.798;2023-02-28T05:05:48;101801.47;;;-17.90;57.42
66703;BME280;60933;46.398;-63.798;2023-02-28T05:08:14;101813.44;;;-17.86;56.62
66703;BME280;60933;46.398;-63.798;2023-02-28T05:10:40;101805.00;;;-17.88;59.11
66703;BME280;60933;46.398;-63.798;2023-02-28T05:13:08;101806.03;;;-17.86;58.58
66703;BME280;60933;46.398;-63.798;2023-02-28T05:15:35;101808.50;;;-17.86;57.96
66703;BME280;60933;46.398;-63.798;2023-02-28T05:18:01;101803.09;;;-17.91;56.87
66703;BME280;60933;46.398;-63.798;2023-02-28T05:20:27;101815.00;;;-17.87;56.00
66703;BME280;60933;46.398;-63.798;2023-02-28T05:22:53;101829.66;;;-17.88;56.74
66703;BME280;60933;46.398;-63.798;2023-02-28T05:25:21;101828.75;;;-17.89;57.36
66703;BME280;60933;46.398;-63.798;2023-02-28T05:27:48;101826.84;;;-17.91;56.84
66703;BME280;60933;46.398;-63.798;2023-02-28T05:30:15;101827.56;;;-17.92;56.28
66703;BME280;60933;46.398;-63.798;2023-02-28T05:32:41;101833.63;;;-17.97;55.63
66703;BME280;60933;46.398;-63.798;2023-02-28T05:35:11;101845.56;;;-17.93;55.32
66703;BME280;60933;46.398;-63.798;2023-02-28T05:37:38;101851.69;;;-17.90;55.43
66703;BME280;60933;46.398;-63.798;2023-02-28T05:40:06;101866.25;;;-17.84;55.63
66703;BME280;60933;46.398;-63.798;2023-02-28T05:42:34;101864.06;;;-17.74;56.41
66703;BME280;60933;46.398;-63.798;2023-02-28T05:45:00;101870.63;;;-17.58;57.13
66703;BME280;60933;46.398;-63.798;2023-02-28T05:47:26;101865.78;;;-17.49;57.13
66703;BME280;60933;46.398;-63.798;2023-02-28T05:49:52;101873.53;;;-17.30;57.10
66703;BME280;60933;46.398;-63.798;2023-02-28T05:52:18;101878.25;;;-17.09;58.11
66703;BME280;60933;46.398;-63.798;2023-02-28T05:54:46;101882.91;;;-16.87;57.18
66703;BME280;60933;46.398;-63.798;2023-02-28T05:57:12;101882.25;;;-16.61;58.36
66703;BME280;60933;46.398;-63.798;2023-02-28T05:59:38;101890.25;;;-16.39;59.08
66703;BME280;60933;46.398;-63.798;2023-02-28T06:02:08;101888.38;;;-16.17;58.67
66703;BME280;60933;46.398;-63.798;2023-02-28T06:04:36;101892.06;;;-16.04;61.54
66703;BME280;60933;46.398;-63.798;2023-02-28T06:07:02;101900.09;;;-15.98;60.02
66703;BME280;60933;46.398;-63.798;2023-02-28T06:09:29;101893.41;;;-15.99;58.91
66703;BME280;60933;46.398;-63.798;2023-02-28T06:12:00;101885.97;;;-15.99;59.13
66703;BME280;60933;46.398;-63.798;2023-02-28T06:14:28;101892.69;;;-15.98;59.32
66703;BME280;60933;46.398;-63.798;2023-02-28T06:16:54;101893.25;;;-16.01;57.30
66703;BME280;60933;46.398;-63.798;2023-02-28T06:19:20;101885.97;;;-15.99;57.19
66703;BME280;60933;46.398;-63.798;2023-02-28T06:21:49;101893.00;;;-15.95;56.75
66703;BME280;60933;46.398;-63.798;2023-02-28T06:24:18;101893.63;;;-15.89;59.80
66703;BME280;60933;46.398;-63.798;2023-02-28T06:26:45;101894.78;;;-15.85;59.48
66703;BME280;60933;46.398;-63.798;2023-02-28T06:29:10;101892.31;;;-15.77;63.81
66703;BME280;60933;46.398;-63.798;2023-02-28T06:31:37;101892.19;;;-15.69;62.18
66703;BME280;60933;46.398;-63.798;2023-02-28T06:34:04;101891.78;;;-15.65;62.42
66703;BME280;60933;46.398;-63.798;2023-02-28T06:36:30;101875.78;;;-15.60;63.19
66703;BME280;60933;46.398;-63.798;2023-02-28T06:38:56;101881.34;;;-15.54;59.23
66703;BME280;60933;46.398;-63.798;2023-02-28T06:41:24;101876.44;;;-15.45;58.46
66703;BME280;60933;46.398;-63.798;2023-02-28T06:43:51;101873.66;;;-15.39;59.00
66703;BME280;60933;46.398;-63.798;2023-02-28T06:46:17;101878.00;;;-15.46;59.26
66703;BME280;60933;46.398;-63.798;2023-02-28T06:48:46;101881.66;;;-15.51;58.06
66703;BME280;60933;46.398;-63.798;2023-02-28T06:51:15;101882.38;;;-15.52;58.04
66703;BME280;60933;46.398;-63.798;2023-02-28T06:53:42;101881.91;;;-15.56;58.48
66703;BME280;60933;46.398;-63.798;2023-02-28T06:56:10;101884.81;;;-15.61;57.88
66703;BME280;60933;46.398;-63.798;2023-02-28T06:58:37;101883.34;;;-15.67;59.37
66703;BME280;60933;46.398;-63.798;2023-02-28T07:01:05;101878.38;;;-15.67;59.00
66703;BME280;60933;46.398;-63.798;2023-02-28T07:03:32;101890.44;;;-15.70;58.83
66703;BME280;60933;46.398;-63.798;2023-02-28T07:05:58;101890.00;;;-15.75;57.68
66703;BME280;60933;46.398;-63.798;2023-02-28T07:08:25;101893.22;;;-15.76;57.34
66703;BME280;60933;46.398;-63.798;2023-02-28T07:10:55;101894.66;;;-15.78;58.06
66703;BME280;60933;46.398;-63.798;2023-02-28T07:13:22;101904.53;;;-15.78;58.49
66703;BME280;60933;46.398;-63.798;2023-02-28T07:16:00;101903.38;;;-15.82;60.14
66703;BME280;60933;46.398;-63.798;2023-02-28T07:18:30;101900.59;;;-15.85;59.96
66703;BME280;60933;46.398;-63.798;2023-02-28T07:20:56;101894.19;;;-15.92;58.77
66703;BME280;60933;46.398;-63.798;2023-02-28T07:23:22;101898.09;;;-15.94;58.38
66703;BME280;60933;46.398;-63.798;2023-02-28T07:25:50;101903.75;;;-15.95;58.31
66703;BME280;60933;46.398;-63.798;2023-02-28T07:28:16;101906.66;;;-15.99;58.57
66703;BME280;60933;46.398;-63.798;2023-02-28T07:30:42;101911.44;;;-16.00;58.25
66703;BME280;60933;46.398;-63.798;2023-02-28T07:33:08;101912.91;;;-16.02;58.31
66703;BME280;60933;46.398;-63.798;2023-02-28T07:35:34;101907.63;;;-16.05;59.49
66703;BME280;60933;46.398;-63.798;2023-02-28T07:38:01;101910.34;;;-16.11;60.57
66703;BME280;60933;46.398;-63.798;2023-02-28T07:40:28;101913.25;;;-16.15;59.92
66703;BME280;60933;46.398;-63.798;2023-02-28T07:42:54;101917.72;;;-16.20;59.51
66703;BME280;60933;46.398;-63.798;2023-02-28T07:45:20;101925.00;;;-16.21;59.41
66703;BME280;60933;46.398;-63.798;2023-02-28T07:47:46;101926.28;;;-16.25;59.26
66703;BME280;60933;46.398;-63.798;2023-02-28T07:50:14;101934.81;;;-16.30;60.54
66703;BME280;60933;46.398;-63.798;2023-02-28T07:52:41;101927.50;;;-16.37;59.94
66703;BME280;60933;46.398;-63.798;2023-02-28T07:55:08;101931.44;;;-16.40;58.84
66703;BME280;60933;46.398;-63.798;2023-02-28T07:57:35;101930.78;;;-16.46;58.80
66703;BME280;60933;46.398;-63.798;2023-02-28T08:00:03;101923.78;;;-16.50;59.00
66703;BME280;60933;46.398;-63.798;2023-02-28T08:02:29;101921.69;;;-16.54;58.46
66703;BME280;60933;46.398;-63.798;2023-02-28T08:04:55;101925.63;;;-16.56;59.24
66703;BME280;60933;46.398;-63.798;2023-02-28T08:07:21;101929.19;;;-16.61;59.91
66703;BME280;60933;46.398;-63.798;2023-02-28T08:09:47;101922.91;;;-16.66;60.65
66703;BME280;60933;46.398;-63.798;2023-02-28T08:12:13;101922.84;;;-16.75;61.40
66703;BME280;60933;46.398;-63.798;2023-02-28T08:14:40;101931.84;;;-16.76;60.63
66703;BME280;60933;46.398;-63.798;2023-02-28T08:17:06;101938.06;;;-16.79;59.67
66703;BME280;60933;46.398;-63.798;2023-02-28T08:19:32;101937.56;;;-16.84;59.03
66703;BME280;60933;46.398;-63.798;2023-02-28T08:21:58;101934.81;;;-16.87;58.30
66703;BME280;60933;46.398;-63.798;2023-02-28T08:24:24;101943.63;;;-16.89;60.04
66703;BME280;60933;46.398;-63.798;2023-02-28T08:26:50;101944.94;;;-16.93;61.73
66703;BME280;60933;46.398;-63.798;2023-02-28T08:29:16;101939.50;;;-16.97;61.61
66703;BME280;60933;46.398;-63.798;2023-02-28T08:31:43;101949.06;;;-17.00;60.44
66703;BME280;60933;46.398;-63.798;2023-02-28T08:34:11;101945.25;;;-17.06;59.78
66703;BME280;60933;46.398;-63.798;2023-02-28T08:36:37;101954.81;;;-17.09;58.91
66703;BME280;60933;46.398;-63.798;2023-02-28T08:39:05;101951.84;;;-17.13;58.55
66703;BME280;60933;46.398;-63.798;2023-02-28T08:41:31;101953.84;;;-17.18;58.40
66703;BME280;60933;46.398;-63.798;2023-02-28T08:43:57;101963.94;;;-17.24;57.98
66703;BME280;60933;46.398;-63.798;2023-02-28T08:46:23;101960.97;;;-17.28;57.58
66703;BME280;60933;46.398;-63.798;2023-02-28T08:48:54;101960.88;;;-17.37;57.08
66703;BME280;60933;46.398;-63.798;2023-02-28T08:51:21;101967.38;;;-17.38;57.61
66703;BME280;60933;46.398;-63.798;2023-02-28T08:53:59;101967.78;;;-17.42;57.52
66703;BME280;60933;46.398;-63.798;2023-02-28T08:56:26;101969.75;;;-17.46;57.60
66703;BME280;60933;46.398;-63.798;2023-02-28T08:58:55;101975.25;;;-17.49;57.35
66703;BME280;60933;46.398;-63.798;2023-02-28T09:01:24;101977.22;;;-17.54;58.07
66703;BME280;60933;46.398;-63.798;2023-02-28T09:03:52;101976.72;;;-17.58;60.84
66703;BME280;60933;46.398;-63.798;2023-02-28T09:06:21;101974.66;;;-17.62;62.49
66703;BME280;60933;46.398;-63.798;2023-02-28T09:08:47;101963.94;;;-17.70;63.00
66703;BME280;60933;46.398;-63.798;2023-02-28T09:11:13;101971.50;;;-17.69;62.97
66703;BME280;60933;46.398;-63.798;2023-02-28T09:13:40;101966.63;;;-17.76;62.12
66703;BME280;60933;46.398;-63.798;2023-02-28T09:16:10;101978.09;;;-17.76;60.88
66703;BME280;60933;46.398;-63.798;2023-02-28T09:18:37;101971.94;;;-17.80;59.32
66703;BME280;60933;46.398;-63.798;2023-02-28T09:21:06;101978.28;;;-17.82;59.11
66703;BME280;60933;46.398;-63.798;2023-02-28T09:23:32;101983.78;;;-17.85;58.71
66703;BME280;60933;46.398;-63.798;2023-02-28T09:25:59;101981.50;;;-17.90;60.16
66703;BME280;60933;46.398;-63.798;2023-02-28T09:28:25;101979.59;;;-17.93;58.55
66703;BME280;60933;46.398;-63.798;2023-02-28T09:30:53;101983.19;;;-17.98;58.19
66703;BME280;60933;46.398;-63.798;2023-02-28T09:33:21;101988.81;;;-17.99;57.81
66703;BME280;60933;46.398;-63.798;2023-02-28T09:35:48;101985.16;;;-18.03;58.48
66703;BME280;60933;46.398;-63.798;2023-02-28T09:38:14;101989.03;;;-18.05;60.39
66703;BME280;60933;46.398;-63.798;2023-02-28T09:41:01;101989.41;;;-18.09;60.26
66703;BME280;60933;46.398;-63.798;2023-02-28T09:43:40;101993.28;;;-18.11;58.97
66703;BME280;60933;46.398;-63.798;2023-02-28T09:46:32;101991.53;;;-18.12;62.88
66703;BME280;60933;46.398;-63.798;2023-02-28T09:49:02;101985.22;;;-18.17;61.75
66703;BME280;60933;46.398;-63.798;2023-02-28T09:51:52;101985.22;;;-18.17;63.30
66703;BME280;60933;46.398;-63.798;2023-02-28T09:54:24;101987.69;;;-18.17;65.31
66703;BME280;60933;46.398;-63.798;2023-02-28T10:02:41;101991.03;;;-18.24;65.35
66703;BME280;60933;46.398;-63.798;2023-02-28T10:05:14;101984.03;;;-18.28;65.23
66703;BME280;60933;46.398;-63.798;2023-02-28T10:08:04;101991.06;;;-18.31;64.47
66703;BME280;60933;46.398;-63.798;2023-02-28T10:10:33;101985.09;;;-18.33;65.54
66703;BME280;60933;46.398;-63.798;2023-02-28T10:13:05;101989.00;;;-18.35;65.36
66703;BME280;60933;46.398;-63.798;2023-02-28T10:15:37;101983.88;;;-18.37;65.55
66703;BME280;60933;46.398;-63.798;2023-02-28T10:18:12;101990.41;;;-18.37;65.46
66703;BME280;60933;46.398;-63.798;2023-02-28T10:20:42;101997.97;;;-18.36;67.07
66703;BME280;60933;46.398;-63.798;2023-02-28T10:23:20;101993.72;;;-18.37;66.63
66703;BME280;60933;46.398;-63.798;2023-02-28T10:25:59;101983.38;;;-18.41;65.08
66703;BME280;60933;46.398;-63.798;2023-02-28T10:28:29;101980.75;;;-18.43;63.31
66703;BME280;60933;46.398;-63.798;2023-02-28T10:30:56;101975.28;;;-18.48;62.00
66703;BME280;60933;46.398;-63.798;2023-02-28T10:35:53;101979.91;;;-18.51;60.61
66703;BME280;60933;46.398;-63.798;2023-02-28T10:38:25;101990.28;;;-18.53;60.20
66703;BME280;60933;46.398;-63.798;2023-02-28T10:41:02;101989.25;;;-18.55;59.36
66703;BME280;60933;46.398;-63.798;2023-02-28T10:43:29;101987.13;;;-18.59;59.07
66703;BME280;60933;46.398;-63.798;2023-02-28T10:46:09;101993.66;;;-18.60;58.91
66703;BME280;60933;46.398;-63.798;2023-02-28T10:49:42;101996.81;;;-18.61;58.41
66703;BME280;60933;46.398;-63.798;2023-02-28T10:51:40;101992.22;;;-18.65;58.25
66703;BME280;60933;46.398;-63.798;2023-02-28T10:54:16;101995.06;;;-18.69;59.14
66703;BME280;60933;46.398;-63.798;2023-02-28T10:56:44;102006.84;;;-18.67;62.60
66703;BME280;60933;46.398;-63.798;2023-02-28T10:59:42;101996.84;;;-18.68;62.11
66703;BME280;60933;46.398;-63.798;2023-02-28T11:04:56;102001.94;;;-18.67;59.65
66703;BME280;60933;46.398;-63.798;2023-02-28T11:07:23;101992.63;;;-18.69;58.92
66703;BME280;60933;46.398;-63.798;2023-02-28T11:09:52;101996.31;;;-18.66;58.75
66703;BME280;60933;46.398;-63.798;2023-02-28T11:14:52;102003.34;;;-18.69;58.62
66703;BME280;60933;46.398;-63.798;2023-02-28T11:17:24;102018.81;;;-18.63;58.56
66703;BME280;60933;46.398;-63.798;2023-02-28T11:19:54;102006.66;;;-18.61;57.78
66703;BME280;60933;46.398;-63.798;2023-02-28T11:22:24;102002.09;;;-18.58;59.36
66703;BME280;60933;46.398;-63.798;2023-02-28T11:24:56;102003.31;;;-18.54;61.32
66703;BME280;60933;46.398;-63.798;2023-02-28T11:29:57;102005.22;;;-18.44;64.15
66703;BME280;60933;46.398;-63.798;2023-02-28T11:32:25;102003.28;;;-18.40;64.01
66703;BME280;60933;46.398;-63.798;2023-02-28T11:37:31;102010.97;;;-18.29;60.25
66703;BME280;60933;46.398;-63.798;2023-02-28T11:39:58;102010.78;;;-18.24;59.06
66703;BME280;60933;46.398;-63.798;2023-02-28T11:42:45;102012.16;;;-18.19;58.85
66703;BME280;60933;46.398;-63.798;2023-02-28T11:51:20;102026.25;;;-17.87;56.94
66703;BME280;60933;46.398;-63.798;2023-02-28T11:59:02;102028.88;;;-17.55;57.91
66703;BME280;60933;46.398;-63.798;2023-02-28T12:04:24;102028.88;;;-17.32;56.58
66703;BME280;60933;46.398;-63.798;2023-02-28T12:07:09;102035.13;;;-17.20;56.46
66703;BME280;60933;46.398;-63.798;2023-02-28T12:26:15;102035.22;;;-16.08;57.43
66703;BME280;60933;46.398;-63.798;2023-02-28T12:28:57;102033.03;;;-15.88;57.40
66703;BME280;60933;46.398;-63.798;2023-02-28T12:31:38;102031.38;;;-15.72;56.57
66703;BME280;60933;46.398;-63.798;2023-02-28T12:34:10;102041.53;;;-15.53;57.56
66703;BME280;60933;46.398;-63.798;2023-02-28T12:36:41;102030.69;;;-15.37;56.76
66703;BME280;60933;46.398;-63.798;2023-02-28T12:39:20;102036.03;;;-15.17;57.11
66703;BME280;60933;46.398;-63.798;2023-02-28T12:41:54;102037.28;;;-14.96;56.52
66703;BME280;60933;46.398;-63.798;2023-02-28T12:44:26;102033.44;;;-14.76;57.40
66703;BME280;60933;46.398;-63.798;2023-02-28T12:47:02;102036.34;;;-14.54;57.86
66703;BME280;60933;46.398;-63.798;2023-02-28T12:49:34;102042.38;;;-14.34;58.28
66703;BME280;60933;46.398;-63.798;2023-02-28T12:52:04;102043.13;;;-14.18;57.97
66703;BME280;60933;46.398;-63.798;2023-02-28T12:54:48;102043.69;;;-13.94;58.12
66703;BME280;60933;46.398;-63.798;2023-02-28T13:00:26;102041.00;;;-13.51;59.17
66703;BME280;60933;46.398;-63.798;2023-02-28T13:06:41;102055.25;;;-12.95;60.47
66703;BME280;60933;46.398;-63.798;2023-02-28T13:09:17;102050.03;;;-12.70;61.72
66703;BME280;60933;46.398;-63.798;2023-02-28T13:11:46;102050.97;;;-12.50;60.70
66703;BME280;60933;46.398;-63.798;2023-02-28T13:22:37;102047.78;;;-11.52;63.82
66703;BME280;60933;46.398;-63.798;2023-02-28T13:28:01;102048.69;;;-11.02;63.97
66703;BME280;60933;46.398;-63.798;2023-02-28T13:33:29;102047.88;;;-10.51;61.77
66703;BME280;60933;46.398;-63.798;2023-02-28T13:38:38;102056.81;;;-10.01;63.86
66703;BME280;60933;46.398;-63.798;2023-02-28T13:44:12;102058.28;;;-9.50;64.70
66703;BME280;60933;46.398;-63.798;2023-02-28T13:54:54;102059.09;;;-8.50;63.04
66703;BME280;60933;46.398;-63.798;2023-02-28T13:57:39;102049.75;;;-8.29;61.39
66703;BME280;60933;46.398;-63.798;2023-02-28T14:03:37;102040.53;;;-7.95;56.83
66703;BME280;60933;46.398;-63.798;2023-02-28T14:06:33;102044.88;;;-7.68;57.83
66703;BME280;60933;46.398;-63.798;2023-02-28T14:11:52;102056.16;;;-7.26;59.01
66703;BME280;60933;46.398;-63.798;2023-02-28T14:14:53;102048.38;;;-7.05;58.48
66703;BME280;60933;46.398;-63.798;2023-02-28T14:17:19;102052.31;;;-6.84;57.97
66703;BME280;60933;46.398;-63.798;2023-02-28T14:19:46;102048.31;;;-6.68;56.22
66703;BME280;60933;46.398;-63.798;2023-02-28T14:22:39;102055.88;;;-6.55;54.58
66703;BME280;60933;46.398;-63.798;2023-02-28T14:28:20;102052.69;;;-6.13;53.05
66703;BME280;60933;46.398;-63.798;2023-02-28T14:31:06;102062.13;;;-5.96;52.33
66703;BME280;60933;46.398;-63.798;2023-02-28T14:33:45;102059.75;;;-5.81;52.79
66703;BME280;60933;46.398;-63.798;2023-02-28T14:36:25;102061.84;;;-5.60;52.34
66703;BME280;60933;46.398;-63.798;2023-02-28T14:39:00;102064.84;;;-5.39;51.28
66703;BME280;60933;46.398;-63.798;2023-02-28T14:41:31;102055.88;;;-5.20;50.56
66703;BME280;60933;46.398;-63.798;2023-02-28T14:44:02;102056.41;;;-4.98;51.24